sensor_id;sensor_type;location;lat;lon;timestamp;temperature;humidity
17948;DHT22;9099;47.958;11.366;2022-10-24T00:02:17;18.20;99.90
17948;DHT22;9099;47.958;11.366;2022-10-24T00:04:44;18.20;99.90
17948;DHT22;9099;47.958;11.366;2022-10-24T00:07:10;18.20;99.90
17948;DHT22;9099;47.958;11.366;2022-10-24T00:09:37;18.20;99.90
17948;DHT22;9099;47.958;11.366;2022-10-24T00:12:05;18.20;99.90
17948;DHT22;9099;47.958;11.366;2022-10-24T00:14:35;18.20;99.90
17948;DHT22;9099;47.958;11.366;2022-10-24T00:17:02;18.20;99.90
17948;DHT22;9099;47.958;11.366;2022-10-24T00:19:29;18.10;99.90
17948;DHT22;9099;47.958;11.366;2022-10-24T00:21:56;18.10;99.90
17948;DHT22;9099;47.958;11.366;2022-10-24T00:24:23;18.00;99.90
17948;DHT22;9099;47.958;11.366;2022-10-24T00:26:50;17.90;99.90
17948;DHT22;9099;47.958;11.366;2022-10-24T00:29:17;17.80;99.90
17948;DHT22;9099;47.958;11.366;2022-10-24T00:31:46;17.60;99.90
17948;DHT22;9099;47.958;11.366;2022-10-24T00:34:13;17.40;99.90
17948;DHT22;9099;47.958;11.366;2022-10-24T00:36:40;17.20;99.90
17948;DHT22;9099;47.958;11.366;2022-10-24T00:39:07;17.10;99.90
17948;DHT22;9099;47.958;11.366;2022-10-24T00:41:36;17.00;99.90
17948;DHT22;9099;47.958;11.366;2022-10-24T00:44:13;17.00;99.90
17948;DHT22;9099;47.958;11.366;2022-10-24T00:46:41;16.90;99.90
17948;DHT22;9099;47.958;11.366;2022-10-24T00:49:13;16.90;99.90
17948;DHT22;9099;47.958;11.366;2022-10-24T00:51:41;16.80;99.90
17948;DHT22;9099;47.958;11.366;2022-10-24T00:54:10;16.90;99.90
17948;DHT22;9099;47.958;11.366;2022-10-24T00:56:40;16.90;99.90
17948;DHT22;9099;47.958;11.366;2022-10-24T00:59:10;16.90;99.90
17948;DHT22;9099;47.958;11.366;2022-10-24T01:01:38;16.80;99.90
17948;DHT22;9099;47.958;11.366;2022-10-24T01:04:09;16.80;99.90
17948;DHT22;9099;47.958;11.366;2022-10-24T01:06:46;16.70;99.90
17948;DHT22;9099;47.958;11.366;2022-10-24T01:09:23;16.60;99.90
17948;DHT22;9099;47.958;11.366;2022-10-24T01:12:02;16.50;99.90
17948;DHT22;9099;47.958;11.366;2022-10-24T01:14:37;16.50;99.90
17948;DHT22;9099;47.958;11.366;2022-10-24T01:17:12;16.40;99.90
17948;DHT22;9099;47.958;11.366;2022-10-24T01:22:57;16.40;99.90
17948;DHT22;9099;47.958;11.366;2022-10-24T01:25:34;16.30;99.90
17948;DHT22;9099;47.958;11.366;2022-10-24T01:28:08;16.20;99.90
17948;DHT22;9099;47.958;11.366;2022-10-24T01:30:41;16.20;99.90
17948;DHT22;9099;47.958;11.366;2022-10-24T01:33:15;16.10;99.90
17948;DHT22;9099;47.958;11.366;2022-10-24T01:35:48;16.10;99.90
17948;DHT22;9099;47.958;11.366;2022-10-24T01:38:21;16.10;99.90
17948;DHT22;9099;47.958;11.366;2022-10-24T01:40:52;16.10;99.90
17948;DHT22;9099;47.958;11.366;2022-10-24T01:43:25;16.10;99.90
17948;DHT22;9099;47.958;11.366;2022-10-24T01:45:57;16.10;99.90
17948;DHT22;9099;47.958;11.366;2022-10-24T01:48:25;16.10;99.90
17948;DHT22;9099;47.958;11.366;2022-10-24T01:50:55;16.00;99.90
17948;DHT22;9099;47.958;11.366;2022-10-24T01:53:23;16.00;99.90
17948;DHT22;9099;47.958;11.366;2022-10-24T01:55:51;15.90;99.90
17948;DHT22;9099;47.958;11.366;2022-10-24T01:58:18;15.80;99.90
17948;DHT22;9099;47.958;11.366;2022-10-24T02:00:46;15.70;99.90
17948;DHT22;9099;47.958;11.366;2022-10-24T02:03:19;15.70;99.90
17948;DHT22;9099;47.958;11.366;2022-10-24T02:05:51;15.60;99.90
17948;DHT22;9099;47.958;11.366;2022-10-24T02:08:21;15.60;99.90
17948;DHT22;9099;47.958;11.366;2022-10-24T02:10:51;15.50;99.90
17948;DHT22;9099;47.958;11.366;2022-10-24T02:13:26;15.40;99.90
17948;DHT22;9099;47.958;11.366;2022-10-24T02:15:58;15.50;99.90
17948;DHT22;9099;47.958;11.366;2022-10-24T02:18:28;15.50;99.90
17948;DHT22;9099;47.958;11.366;2022-10-24T02:21:02;15.40;99.90
17948;DHT22;9099;47.958;11.366;2022-10-24T02:23:33;15.40;99.90
17948;DHT22;9099;47.958;11.366;2022-10-24T02:26:05;15.40;99.90
17948;DHT22;9099;47.958;11.366;2022-10-24T02:28:39;15.50;99.90
17948;DHT22;9099;47.958;11.366;2022-10-24T02:31:11;15.40;99.90
17948;DHT22;9099;47.958;11.366;2022-10-24T02:33:42;15.30;99.90
17948;DHT22;9099;47.958;11.366;2022-10-24T02:36:12;15.40;99.90
17948;DHT22;9099;47.958;11.366;2022-10-24T02:38:43;15.30;99.90
17948;DHT22;9099;47.958;11.366;2022-10-24T02:41:15;15.30;99.90
17948;DHT22;9099;47.958;11.366;2022-10-24T02:43:43;15.40;99.90
17948;DHT22;9099;47.958;11.366;2022-10-24T02:46:12;15.40;99.90
17948;DHT22;9099;47.958;11.366;2022-10-24T02:48:45;15.40;99.90
17948;DHT22;9099;47.958;11.366;2022-10-24T02:51:14;15.40;99.90
17948;DHT22;9099;47.958;11.366;2022-10-24T02:53:43;15.40;99.90
17948;DHT22;9099;47.958;11.366;2022-10-24T02:56:09;15.40;99.90
17948;DHT22;9099;47.958;11.366;2022-10-24T02:58:36;15.40;99.90
17948;DHT22;9099;47.958;11.366;2022-10-24T03:01:03;15.40;99.90
17948;DHT22;9099;47.958;11.366;2022-10-24T03:03:30;15.50;99.90
17948;DHT22;9099;47.958;11.366;2022-10-24T03:05:58;15.60;99.90
17948;DHT22;9099;47.958;11.366;2022-10-24T03:08:25;15.70;99.90
17948;DHT22;9099;47.958;11.366;2022-10-24T03:10:52;15.60;99.90
17948;DHT22;9099;47.958;11.366;2022-10-24T03:13:19;15.60;99.90
17948;DHT22;9099;47.958;11.366;2022-10-24T03:15:46;15.60;99.90
17948;DHT22;9099;47.958;11.366;2022-10-24T03:18:13;15.50;99.90
17948;DHT22;9099;47.958;11.366;2022-10-24T03:20:39;15.40;99.90
17948;DHT22;9099;47.958;11.366;2022-10-24T03:23:08;15.30;99.90
17948;DHT22;9099;47.958;11.366;2022-10-24T03:25:35;15.30;99.90
17948;DHT22;9099;47.958;11.366;2022-10-24T03:28:02;15.30;99.90
17948;DHT22;9099;47.958;11.366;2022-10-24T03:30:29;15.30;99.90
17948;DHT22;9099;47.958;11.366;2022-10-24T03:32:56;15.30;99.90
17948;DHT22;9099;47.958;11.366;2022-10-24T03:35:22;15.30;99.90
17948;DHT22;9099;47.958;11.366;2022-10-24T03:37:49;15.30;99.90
17948;DHT22;9099;47.958;11.366;2022-10-24T03:40:18;15.20;99.90
17948;DHT22;9099;47.958;11.366;2022-10-24T03:42:44;15.20;99.90
17948;DHT22;9099;47.958;11.366;2022-10-24T03:45:11;15.20;99.90
17948;DHT22;9099;47.958;11.366;2022-10-24T03:47:38;15.10;99.90
17948;DHT22;9099;47.958;11.366;2022-10-24T03:50:06;15.20;99.90
17948;DHT22;9099;47.958;11.366;2022-10-24T03:52:33;15.20;99.90
17948;DHT22;9099;47.958;11.366;2022-10-24T03:55:00;15.20;99.90
17948;DHT22;9099;47.958;11.366;2022-10-24T03:57:28;15.20;99.90
17948;DHT22;9099;47.958;11.366;2022-10-24T03:59:55;15.20;99.90
17948;DHT22;9099;47.958;11.366;2022-10-24T04:02:22;15.30;99.90
17948;DHT22;9099;47.958;11.366;2022-10-24T04:04:49;15.30;99.90
17948;DHT22;9099;47.958;11.366;2022-10-24T04:07:16;15.40;99.90
17948;DHT22;9099;47.958;11.366;2022-10-24T04:09:43;15.40;99.90
17948;DHT22;9099;47.958;11.366;2022-10-24T04:12:10;15.40;99.90
17948;DHT22;9099;47.958;11.366;2022-10-24T04:14:38;15.40;99.90
17948;DHT22;9099;47.958;11.366;2022-10-24T04:17:05;15.40;99.90
17948;DHT22;9099;47.958;11.366;2022-10-24T04:19:32;15.40;99.90
17948;DHT22;9099;47.958;11.366;2022-10-24T04:21:59;15.40;99.90
17948;DHT22;9099;47.958;11.366;2022-10-24T04:24:26;15.30;99.90
17948;DHT22;9099;47.958;11.366;2022-10-24T04:26:52;15.30;99.90
17948;DHT22;9099;47.958;11.366;2022-10-24T04:29:19;15.20;99.90
17948;DHT22;9099;47.958;11.366;2022-10-24T04:31:47;15.20;99.90
17948;DHT22;9099;47.958;11.366;2022-10-24T04:34:15;15.10;99.90
17948;DHT22;9099;47.958;11.366;2022-10-24T04:36:42;15.00;99.90
17948;DHT22;9099;47.958;11.366;2022-10-24T04:39:09;14.90;99.90
17948;DHT22;9099;47.958;11.366;2022-10-24T04:41:36;15.00;99.90
17948;DHT22;9099;47.958;11.366;2022-10-24T04:44:03;15.00;99.90
17948;DHT22;9099;47.958;11.366;2022-10-24T04:46:29;15.00;99.90
17948;DHT22;9099;47.958;11.366;2022-10-24T04:48:58;15.00;99.90
17948;DHT22;9099;47.958;11.366;2022-10-24T04:51:25;15.00;99.90
17948;DHT22;9099;47.958;11.366;2022-10-24T04:53:52;15.00;99.90
17948;DHT22;9099;47.958;11.366;2022-10-24T04:56:19;15.00;99.90
17948;DHT22;9099;47.958;11.366;2022-10-24T04:58:46;15.00;99.90
17948;DHT22;9099;47.958;11.366;2022-10-24T05:01:12;15.00;99.90
17948;DHT22;9099;47.958;11.366;2022-10-24T05:03:39;15.10;99.90
17948;DHT22;9099;47.958;11.366;2022-10-24T05:06:08;15.00;99.90
17948;DHT22;9099;47.958;11.366;2022-10-24T05:08:34;15.00;99.90
17948;DHT22;9099;47.958;11.366;2022-10-24T05:11:02;15.00;99.90
17948;DHT22;9099;47.958;11.366;2022-10-24T05:13:29;15.00;99.90
17948;DHT22;9099;47.958;11.366;2022-10-24T05:15:55;15.00;99.90
17948;DHT22;9099;47.958;11.366;2022-10-24T05:18:22;15.00;99.90
17948;DHT22;9099;47.958;11.366;2022-10-24T05:20:49;15.00;99.90
17948;DHT22;9099;47.958;11.366;2022-10-24T05:23:17;15.00;99.90
17948;DHT22;9099;47.958;11.366;2022-10-24T05:25:44;15.00;99.90
17948;DHT22;9099;47.958;11.366;2022-10-24T05:28:11;15.00;99.90
17948;DHT22;9099;47.958;11.366;2022-10-24T05:30:38;15.00;99.90
17948;DHT22;9099;47.958;11.366;2022-10-24T05:33:04;15.00;99.90
17948;DHT22;9099;47.958;11.366;2022-10-24T05:35:31;14.90;99.90
17948;DHT22;9099;47.958;11.366;2022-10-24T05:37:58;15.00;99.90
17948;DHT22;9099;47.958;11.366;2022-10-24T05:40:27;15.00;99.90
17948;DHT22;9099;47.958;11.366;2022-10-24T05:42:53;15.00;99.90
17948;DHT22;9099;47.958;11.366;2022-10-24T05:45:20;14.90;99.90
17948;DHT22;9099;47.958;11.366;2022-10-24T05:47:47;14.90;99.90
17948;DHT22;9099;47.958;11.366;2022-10-24T05:50:14;15.00;99.90
17948;DHT22;9099;47.958;11.366;2022-10-24T05:52:41;14.90;99.90
17948;DHT22;9099;47.958;11.366;2022-10-24T05:55:09;15.00;99.90
17948;DHT22;9099;47.958;11.366;2022-10-24T05:57:38;14.90;99.90
17948;DHT22;9099;47.958;11.366;2022-10-24T06:00:06;15.00;99.90
17948;DHT22;9099;47.958;11.366;2022-10-24T06:02:33;15.00;99.90
17948;DHT22;9099;47.958;11.366;2022-10-24T06:05:00;14.90;99.90
17948;DHT22;9099;47.958;11.366;2022-10-24T06:07:27;15.00;99.90
17948;DHT22;9099;47.958;11.366;2022-10-24T06:09:54;14.90;99.90
17948;DHT22;9099;47.958;11.366;2022-10-24T06:12:21;14.90;99.90
17948;DHT22;9099;47.958;11.366;2022-10-24T06:14:49;14.90;99.90
17948;DHT22;9099;47.958;11.366;2022-10-24T06:17:16;14.90;99.90
17948;DHT22;9099;47.958;11.366;2022-10-24T06:19:43;14.80;99.90
17948;DHT22;9099;47.958;11.366;2022-10-24T06:22:10;14.80;99.90
17948;DHT22;9099;47.958;11.366;2022-10-24T06:24:37;14.80;99.90
17948;DHT22;9099;47.958;11.366;2022-10-24T06:27:04;14.80;99.90
17948;DHT22;9099;47.958;11.366;2022-10-24T06:29:31;14.90;99.90
17948;DHT22;9099;47.958;11.366;2022-10-24T06:31:59;14.90;99.90
17948;DHT22;9099;47.958;11.366;2022-10-24T06:34:26;14.90;99.90
17948;DHT22;9099;47.958;11.366;2022-10-24T06:36:53;15.00;99.90
17948;DHT22;9099;47.958;11.366;2022-10-24T06:39:20;15.00;99.90
17948;DHT22;9099;47.958;11.366;2022-10-24T06:41:47;15.00;99.90
17948;DHT22;9099;47.958;11.366;2022-10-24T06:44:14;15.20;99.90
17948;DHT22;9099;47.958;11.366;2022-10-24T06:46:41;15.20;99.90
17948;DHT22;9099;47.958;11.366;2022-10-24T06:49:10;15.30;99.90
17948;DHT22;9099;47.958;11.366;2022-10-24T06:51:37;15.40;99.90
17948;DHT22;9099;47.958;11.366;2022-10-24T06:54:04;15.50;99.90
17948;DHT22;9099;47.958;11.366;2022-10-24T06:56:31;15.50;99.90
17948;DHT22;9099;47.958;11.366;2022-10-24T06:58:58;15.50;99.90
17948;DHT22;9099;47.958;11.366;2022-10-24T07:01:25;15.40;99.90
17948;DHT22;9099;47.958;11.366;2022-10-24T07:03:53;15.40;99.90
17948;DHT22;9099;47.958;11.366;2022-10-24T07:06:23;15.40;99.90
17948;DHT22;9099;47.958;11.366;2022-10-24T07:08:51;15.40;99.90
17948;DHT22;9099;47.958;11.366;2022-10-24T07:11:18;15.50;99.90
17948;DHT22;9099;47.958;11.366;2022-10-24T07:13:45;15.50;99.90
17948;DHT22;9099;47.958;11.366;2022-10-24T07:16:12;15.50;99.90
17948;DHT22;9099;47.958;11.366;2022-10-24T07:18:39;15.50;99.90
17948;DHT22;9099;47.958;11.366;2022-10-24T07:21:07;15.50;99.90
17948;DHT22;9099;47.958;11.366;2022-10-24T07:23:36;15.50;99.90
17948;DHT22;9099;47.958;11.366;2022-10-24T07:26:04;15.50;99.90
17948;DHT22;9099;47.958;11.366;2022-10-24T07:28:32;15.60;99.90
17948;DHT22;9099;47.958;11.366;2022-10-24T07:30:59;15.60;99.90
17948;DHT22;9099;47.958;11.366;2022-10-24T07:33:26;15.60;99.90
17948;DHT22;9099;47.958;11.366;2022-10-24T07:35:53;15.70;99.90
17948;DHT22;9099;47.958;11.366;2022-10-24T07:38:20;15.80;99.90
17948;DHT22;9099;47.958;11.366;2022-10-24T07:40:48;15.80;99.90
17948;DHT22;9099;47.958;11.366;2022-10-24T07:43:16;15.90;99.90
17948;DHT22;9099;47.958;11.366;2022-10-24T07:45:43;15.90;99.90
17948;DHT22;9099;47.958;11.366;2022-10-24T07:48:10;15.80;99.90
17948;DHT22;9099;47.958;11.366;2022-10-24T07:50:41;15.80;99.90
17948;DHT22;9099;47.958;11.366;2022-10-24T07:53:08;15.90;99.90
17948;DHT22;9099;47.958;11.366;2022-10-24T07:55:37;15.90;99.90
17948;DHT22;9099;47.958;11.366;2022-10-24T07:58:05;15.90;99.90
17948;DHT22;9099;47.958;11.366;2022-10-24T08:00:32;15.90;99.90
17948;DHT22;9099;47.958;11.366;2022-10-24T08:02:59;16.00;99.90
17948;DHT22;9099;47.958;11.366;2022-10-24T08:05:26;15.90;99.90
17948;DHT22;9099;47.958;11.366;2022-10-24T08:07:53;15.80;99.90
17948;DHT22;9099;47.958;11.366;2022-10-24T08:10:20;15.80;99.90
17948;DHT22;9099;47.958;11.366;2022-10-24T08:12:46;15.90;99.90
17948;DHT22;9099;47.958;11.366;2022-10-24T08:15:15;15.90;99.90
17948;DHT22;9099;47.958;11.366;2022-10-24T08:17:41;15.80;99.90
17948;DHT22;9099;47.958;11.366;2022-10-24T08:20:10;15.80;99.90
17948;DHT22;9099;47.958;11.366;2022-10-24T08:22:37;15.80;99.90
17948;DHT22;9099;47.958;11.366;2022-10-24T08:25:05;16.00;99.90
17948;DHT22;9099;47.958;11.366;2022-10-24T08:27:34;16.00;99.90
17948;DHT22;9099;47.958;11.366;2022-10-24T08:30:01;16.00;99.90
17948;DHT22;9099;47.958;11.366;2022-10-24T08:32:29;16.10;99.90
17948;DHT22;9099;47.958;11.366;2022-10-24T08:34:56;16.10;99.90
17948;DHT22;9099;47.958;11.366;2022-10-24T08:37:23;16.10;99.90
17948;DHT22;9099;47.958;11.366;2022-10-24T08:39:50;16.10;99.90
17948;DHT22;9099;47.958;11.366;2022-10-24T08:42:21;16.10;99.90
17948;DHT22;9099;47.958;11.366;2022-10-24T08:44:49;16.20;99.90
17948;DHT22;9099;47.958;11.366;2022-10-24T08:47:20;16.00;99.90
17948;DHT22;9099;47.958;11.366;2022-10-24T08:49:56;16.00;99.90
17948;DHT22;9099;47.958;11.366;2022-10-24T08:52:28;15.90;99.90
17948;DHT22;9099;47.958;11.366;2022-10-24T08:54:57;16.00;99.90
17948;DHT22;9099;47.958;11.366;2022-10-24T08:57:27;16.10;99.90
17948;DHT22;9099;47.958;11.366;2022-10-24T08:59:58;16.20;99.90
17948;DHT22;9099;47.958;11.366;2022-10-24T09:02:26;16.30;99.90
17948;DHT22;9099;47.958;11.366;2022-10-24T09:04:59;16.40;99.90
17948;DHT22;9099;47.958;11.366;2022-10-24T09:07:27;16.50;99.90
17948;DHT22;9099;47.958;11.366;2022-10-24T09:10:03;16.60;99.90
17948;DHT22;9099;47.958;11.366;2022-10-24T09:12:33;16.50;99.90
17948;DHT22;9099;47.958;11.366;2022-10-24T09:15:00;16.40;99.90
17948;DHT22;9099;47.958;11.366;2022-10-24T09:17:30;16.40;99.90
17948;DHT22;9099;47.958;11.366;2022-10-24T09:20:03;16.30;99.90
17948;DHT22;9099;47.958;11.366;2022-10-24T09:22:34;16.40;99.90
17948;DHT22;9099;47.958;11.366;2022-10-24T09:25:03;16.40;99.90
17948;DHT22;9099;47.958;11.366;2022-10-24T09:27:32;16.40;99.90
17948;DHT22;9099;47.958;11.366;2022-10-24T09:30:00;16.40;99.90
17948;DHT22;9099;47.958;11.366;2022-10-24T09:32:29;16.30;99.90
17948;DHT22;9099;47.958;11.366;2022-10-24T09:35:00;16.40;99.90
17948;DHT22;9099;47.958;11.366;2022-10-24T09:37:35;16.40;99.90
17948;DHT22;9099;47.958;11.366;2022-10-24T09:40:11;16.50;99.90
17948;DHT22;9099;47.958;11.366;2022-10-24T09:42:39;16.50;99.90
17948;DHT22;9099;47.958;11.366;2022-10-24T09:45:37;16.50;99.90
17948;DHT22;9099;47.958;11.366;2022-10-24T09:48:14;16.50;99.90
17948;DHT22;9099;47.958;11.366;2022-10-24T09:50:44;16.60;99.90
17948;DHT22;9099;47.958;11.366;2022-10-24T09:53:24;16.50;99.90
17948;DHT22;9099;47.958;11.366;2022-10-24T09:55:53;16.50;99.90
17948;DHT22;9099;47.958;11.366;2022-10-24T09:58:24;16.50;99.90
17948;DHT22;9099;47.958;11.366;2022-10-24T10:00:58;16.50;99.90
17948;DHT22;9099;47.958;11.366;2022-10-24T10:03:25;16.60;99.90
17948;DHT22;9099;47.958;11.366;2022-10-24T10:05:55;16.50;99.90
17948;DHT22;9099;47.958;11.366;2022-10-24T10:08:24;16.40;99.90
17948;DHT22;9099;47.958;11.366;2022-10-24T10:11:00;16.30;99.90
17948;DHT22;9099;47.958;11.366;2022-10-24T10:13:28;16.20;99.90
17948;DHT22;9099;47.958;11.366;2022-10-24T10:15:58;16.20;99.90
17948;DHT22;9099;47.958;11.366;2022-10-24T10:18:28;16.20;99.90
17948;DHT22;9099;47.958;11.366;2022-10-24T10:21:04;16.20;99.90
17948;DHT22;9099;47.958;11.366;2022-10-24T10:23:33;16.20;99.90
17948;DHT22;9099;47.958;11.366;2022-10-24T10:26:07;16.20;99.90
17948;DHT22;9099;47.958;11.366;2022-10-24T10:28:45;16.20;99.90
17948;DHT22;9099;47.958;11.366;2022-10-24T10:31:12;16.20;99.90
17948;DHT22;9099;47.958;11.366;2022-10-24T10:33:44;16.20;99.90
17948;DHT22;9099;47.958;11.366;2022-10-24T10:36:20;16.30;99.90
17948;DHT22;9099;47.958;11.366;2022-10-24T10:38:50;16.30;99.90
17948;DHT22;9099;47.958;11.366;2022-10-24T10:41:33;16.30;99.90
17948;DHT22;9099;47.958;11.366;2022-10-24T10:44:13;16.30;99.90
17948;DHT22;9099;47.958;11.366;2022-10-24T10:46:47;16.20;99.90
17948;DHT22;9099;47.958;11.366;2022-10-24T10:49:22;16.10;99.90
17948;DHT22;9099;47.958;11.366;2022-10-24T10:51:56;16.00;99.90
17948;DHT22;9099;47.958;11.366;2022-10-24T10:54:37;16.00;99.90
17948;DHT22;9099;47.958;11.366;2022-10-24T10:57:12;15.90;99.90
17948;DHT22;9099;47.958;11.366;2022-10-24T10:59:46;15.90;99.90
17948;DHT22;9099;47.958;11.366;2022-10-24T11:02:27;15.80;99.90
17948;DHT22;9099;47.958;11.366;2022-10-24T11:05:08;15.70;99.90
17948;DHT22;9099;47.958;11.366;2022-10-24T11:07:47;15.60;99.90
17948;DHT22;9099;47.958;11.366;2022-10-24T11:10:19;15.60;99.90
17948;DHT22;9099;47.958;11.366;2022-10-24T11:12:47;15.60;99.90
17948;DHT22;9099;47.958;11.366;2022-10-24T11:15:19;15.60;99.90
17948;DHT22;9099;47.958;11.366;2022-10-24T11:17:49;15.60;99.90
17948;DHT22;9099;47.958;11.366;2022-10-24T11:20:21;15.60;99.90
17948;DHT22;9099;47.958;11.366;2022-10-24T11:22:53;15.60;99.90
17948;DHT22;9099;47.958;11.366;2022-10-24T11:25:25;15.60;99.90
17948;DHT22;9099;47.958;11.366;2022-10-24T11:28:00;15.60;99.90
17948;DHT22;9099;47.958;11.366;2022-10-24T11:30:41;15.60;99.90
17948;DHT22;9099;47.958;11.366;2022-10-24T11:33:15;15.60;99.90
17948;DHT22;9099;47.958;11.366;2022-10-24T11:35:59;15.60;99.90
17948;DHT22;9099;47.958;11.366;2022-10-24T11:38:30;15.60;99.90
17948;DHT22;9099;47.958;11.366;2022-10-24T11:41:32;15.60;99.90
17948;DHT22;9099;47.958;11.366;2022-10-24T11:44:05;15.60;99.90
17948;DHT22;9099;47.958;11.366;2022-10-24T11:46:41;15.50;99.90
17948;DHT22;9099;47.958;11.366;2022-10-24T11:49:16;15.50;99.90
17948;DHT22;9099;47.958;11.366;2022-10-24T11:51:49;15.30;99.90
17948;DHT22;9099;47.958;11.366;2022-10-24T11:54:24;15.30;99.90
17948;DHT22;9099;47.958;11.366;2022-10-24T11:56:55;15.20;99.90
17948;DHT22;9099;47.958;11.366;2022-10-24T11:59:23;15.20;99.90
17948;DHT22;9099;47.958;11.366;2022-10-24T12:02:10;15.20;99.90
17948;DHT22;9099;47.958;11.366;2022-10-24T12:05:37;15.20;99.90
17948;DHT22;9099;47.958;11.366;2022-10-24T12:08:34;15.10;99.90
17948;DHT22;9099;47.958;11.366;2022-10-24T12:11:30;15.10;99.90
17948;DHT22;9099;47.958;11.366;2022-10-24T12:14:21;15.10;99.90
17948;DHT22;9099;47.958;11.366;2022-10-24T12:19:41;15.10;99.90
17948;DHT22;9099;47.958;11.366;2022-10-24T12:22:13;15.10;99.90
17948;DHT22;9099;47.958;11.366;2022-10-24T12:24:41;15.10;99.90
17948;DHT22;9099;47.958;11.366;2022-10-24T12:27:20;15.10;99.90
17948;DHT22;9099;47.958;11.366;2022-10-24T12:29:59;15.10;99.90
17948;DHT22;9099;47.958;11.366;2022-10-24T12:32:35;15.20;99.90
17948;DHT22;9099;47.958;11.366;2022-10-24T12:35:46;15.10;99.90
17948;DHT22;9099;47.958;11.366;2022-10-24T12:41:43;14.90;99.90
17948;DHT22;9099;47.958;11.366;2022-10-24T12:47:34;15.00;99.90
17948;DHT22;9099;47.958;11.366;2022-10-24T12:50:52;15.00;99.90
17948;DHT22;9099;47.958;11.366;2022-10-24T12:53:37;15.00;99.90
17948;DHT22;9099;47.958;11.366;2022-10-24T12:56:21;15.00;99.90
17948;DHT22;9099;47.958;11.366;2022-10-24T12:58:56;15.00;99.90
17948;DHT22;9099;47.958;11.366;2022-10-24T13:01:26;15.00;99.90
17948;DHT22;9099;47.958;11.366;2022-10-24T13:07:48;15.10;99.90
17948;DHT22;9099;47.958;11.366;2022-10-24T13:10:37;15.00;99.90
17948;DHT22;9099;47.958;11.366;2022-10-24T13:13:36;14.90;99.90
17948;DHT22;9099;47.958;11.366;2022-10-24T13:16:15;14.90;99.90
17948;DHT22;9099;47.958;11.366;2022-10-24T13:18:53;15.00;99.90
17948;DHT22;9099;47.958;11.366;2022-10-24T13:21:26;15.00;99.90
17948;DHT22;9099;47.958;11.366;2022-10-24T13:24:09;14.90;99.90
17948;DHT22;9099;47.958;11.366;2022-10-24T13:26:40;14.90;99.90
17948;DHT22;9099;47.958;11.366;2022-10-24T13:29:13;14.90;99.90
17948;DHT22;9099;47.958;11.366;2022-10-24T13:31:49;15.00;99.90
17948;DHT22;9099;47.958;11.366;2022-10-24T13:34:26;15.00;99.90
17948;DHT22;9099;47.958;11.366;2022-10-24T13:37:04;14.90;99.90
17948;DHT22;9099;47.958;11.366;2022-10-24T13:39:36;14.90;99.90
17948;DHT22;9099;47.958;11.366;2022-10-24T13:42:07;15.00;99.90
17948;DHT22;9099;47.958;11.366;2022-10-24T13:44:42;15.00;99.90
17948;DHT22;9099;47.958;11.366;2022-10-24T13:47:15;14.90;99.90
17948;DHT22;9099;47.958;11.366;2022-10-24T13:49:49;15.00;99.90
17948;DHT22;9099;47.958;11.366;2022-10-24T13:52:21;14.90;99.90
17948;DHT22;9099;47.958;11.366;2022-10-24T13:54:55;14.80;99.90
17948;DHT22;9099;47.958;11.366;2022-10-24T13:57:26;14.70;99.90
17948;DHT22;9099;47.958;11.366;2022-10-24T13:59:55;14.70;99.90
17948;DHT22;9099;47.958;11.366;2022-10-24T14:02:25;14.70;99.90
17948;DHT22;9099;47.958;11.366;2022-10-24T14:04:53;14.70;99.90
17948;DHT22;9099;47.958;11.366;2022-10-24T14:07:23;14.80;99.90
17948;DHT22;9099;47.958;11.366;2022-10-24T14:09:56;14.70;99.90
17948;DHT22;9099;47.958;11.366;2022-10-24T14:12:24;14.60;99.90
17948;DHT22;9099;47.958;11.366;2022-10-24T14:14:52;14.60;99.90
17948;DHT22;9099;47.958;11.366;2022-10-24T14:17:21;14.50;99.90
17948;DHT22;9099;47.958;11.366;2022-10-24T14:19:53;14.50;99.90
17948;DHT22;9099;47.958;11.366;2022-10-24T14:22:22;14.50;99.90
17948;DHT22;9099;47.958;11.366;2022-10-24T14:24:49;14.40;99.90
17948;DHT22;9099;47.958;11.366;2022-10-24T14:27:18;14.40;99.90
17948;DHT22;9099;47.958;11.366;2022-10-24T14:29:58;14.40;99.90
17948;DHT22;9099;47.958;11.366;2022-10-24T14:32:27;14.30;99.90
17948;DHT22;9099;47.958;11.366;2022-10-24T14:34:54;14.20;99.90
17948;DHT22;9099;47.958;11.366;2022-10-24T14:37:31;14.10;99.90
17948;DHT22;9099;47.958;11.366;2022-10-24T14:39:59;14.10;99.90
17948;DHT22;9099;47.958;11.366;2022-10-24T14:42:28;14.10;99.90
17948;DHT22;9099;47.958;11.366;2022-10-24T14:44:55;14.10;99.90
17948;DHT22;9099;47.958;11.366;2022-10-24T14:47:26;14.00;99.90
17948;DHT22;9099;47.958;11.366;2022-10-24T14:49:53;14.00;99.90
17948;DHT22;9099;47.958;11.366;2022-10-24T14:52:24;14.00;99.90
17948;DHT22;9099;47.958;11.366;2022-10-24T14:54:57;14.00;99.90
17948;DHT22;9099;47.958;11.366;2022-10-24T14:57:31;14.00;99.90
17948;DHT22;9099;47.958;11.366;2022-10-24T14:59:59;13.90;99.90
17948;DHT22;9099;47.958;11.366;2022-10-24T15:02:33;13.80;99.90
17948;DHT22;9099;47.958;11.366;2022-10-24T15:08:00;13.80;99.90
17948;DHT22;9099;47.958;11.366;2022-10-24T15:10:35;13.80;99.90
17948;DHT22;9099;47.958;11.366;2022-10-24T15:13:10;13.80;99.90
17948;DHT22;9099;47.958;11.366;2022-10-24T15:15:49;13.70;99.90
17948;DHT22;9099;47.958;11.366;2022-10-24T15:18:19;13.70;99.90
17948;DHT22;9099;47.958;11.366;2022-10-24T15:20:48;13.70;99.90
17948;DHT22;9099;47.958;11.366;2022-10-24T15:23:24;13.60;99.90
17948;DHT22;9099;47.958;11.366;2022-10-24T15:26:00;13.70;99.90
17948;DHT22;9099;47.958;11.366;2022-10-24T15:28:44;13.70;99.90
17948;DHT22;9099;47.958;11.366;2022-10-24T15:31:12;13.70;99.90
17948;DHT22;9099;47.958;11.366;2022-10-24T15:33:39;13.60;99.90
17948;DHT22;9099;47.958;11.366;2022-10-24T15:36:08;13.60;99.90
17948;DHT22;9099;47.958;11.366;2022-10-24T15:38:39;13.60;99.90
17948;DHT22;9099;47.958;11.366;2022-10-24T15:41:07;13.60;99.90
17948;DHT22;9099;47.958;11.366;2022-10-24T15:43:34;13.50;99.90
17948;DHT22;9099;47.958;11.366;2022-10-24T15:46:02;13.60;99.90
17948;DHT22;9099;47.958;11.366;2022-10-24T15:48:29;13.60;99.90
17948;DHT22;9099;47.958;11.366;2022-10-24T15:50:57;13.50;99.90
17948;DHT22;9099;47.958;11.366;2022-10-24T15:53:24;13.40;99.90
17948;DHT22;9099;47.958;11.366;2022-10-24T15:55:51;13.40;99.90
17948;DHT22;9099;47.958;11.366;2022-10-24T15:58:17;13.40;99.90
17948;DHT22;9099;47.958;11.366;2022-10-24T16:00:44;13.40;99.90
17948;DHT22;9099;47.958;11.366;2022-10-24T16:03:15;13.40;99.90
17948;DHT22;9099;47.958;11.366;2022-10-24T16:05:46;13.40;99.90
17948;DHT22;9099;47.958;11.366;2022-10-24T16:08:15;13.40;99.90
17948;DHT22;9099;47.958;11.366;2022-10-24T16:10:43;13.30;99.90
17948;DHT22;9099;47.958;11.366;2022-10-24T16:13:12;13.30;99.90